createdAt,value
2023-02-24T00:01:25.003Z,7.07
2023-02-24T00:03:57.034Z,7.35
2023-02-24T00:08:51.190Z,6.18
2023-02-24T00:11:19.114Z,6.63
2023-02-24T00:13:49.262Z,5.53
2023-02-24T00:16:17.774Z,6.38
2023-02-24T00:18:45.273Z,6.68
2023-02-24T00:21:14.942Z,5.75
2023-02-24T00:23:48.456Z,6.28
2023-02-24T00:26:15.842Z,6.15
2023-02-24T00:28:42.927Z,6.50
2023-02-24T00:31:14.510Z,6.13
2023-02-24T00:33:42.200Z,6.35
2023-02-24T00:36:11.253Z,5.82
2023-02-24T00:38:39.400Z,6.20
2023-02-24T00:41:15.685Z,6.13
2023-02-24T00:43:46.850Z,5.93
2023-02-24T00:46:18.536Z,7.05
2023-02-24T00:48:48.580Z,6.72
2023-02-24T00:51:17.941Z,6.25
2023-02-24T00:53:45.162Z,6.07
2023-02-24T00:56:12.161Z,6.70
2023-02-24T00:58:40.830Z,6.32
2023-02-24T01:01:19.462Z,6.78
2023-02-24T01:03:49.013Z,6.93
2023-02-24T01:06:20.537Z,6.90
2023-02-24T01:08:48.243Z,6.97
2023-02-24T01:11:34.639Z,6.60
2023-02-24T01:14:08.509Z,8.13
2023-02-24T01:16:35.557Z,7.03
2023-02-24T01:19:02.970Z,6.68
2023-02-24T01:21:29.900Z,6.53
2023-02-24T01:23:57.524Z,7.07
2023-02-24T01:26:26.236Z,6.72
2023-02-24T01:28:54.086Z,6.75
2023-02-24T01:31:21.443Z,6.35
2023-02-24T01:33:51.127Z,7.10
2023-02-24T01:36:20.048Z,7.07
2023-02-24T01:38:47.216Z,7.03
2023-02-24T01:41:32.989Z,7.03
2023-02-24T01:44:09.697Z,7.18
2023-02-24T01:46:38.847Z,6.97
2023-02-24T01:49:19.945Z,7.35
2023-02-24T01:51:51.258Z,6.78
2023-02-24T01:54:20.428Z,8.82
2023-02-24T01:56:49.245Z,7.03
2023-02-24T01:59:16.152Z,6.03
2023-02-24T02:01:43.390Z,6.97
2023-02-24T02:04:36.777Z,6.30
2023-02-24T02:07:03.841Z,8.73
2023-02-24T02:09:31.785Z,7.13
2023-02-24T02:11:58.924Z,8.50
2023-02-24T02:14:26.572Z,7.88
2023-02-24T02:17:05.756Z,7.75
2023-02-24T02:19:50.771Z,7.40
2023-02-24T02:22:39.651Z,7.70
2023-02-24T02:25:07.390Z,7.93
2023-02-24T02:28:19.957Z,6.97
2023-02-24T02:31:19.953Z,7.47
2023-02-24T02:34:30.357Z,7.35
2023-02-24T02:37:29.566Z,6.63
2023-02-24T02:40:08.315Z,6.82
2023-02-24T02:42:47.389Z,6.90
2023-02-24T02:45:40.468Z,6.95
2023-02-24T02:48:15.379Z,7.25
2023-02-24T02:50:48.948Z,7.65
2023-02-24T02:53:23.105Z,6.88
2023-02-24T02:56:22.154Z,6.50
2023-02-24T02:58:53.334Z,6.72
2023-02-24T03:01:24.784Z,6.95
2023-02-24T03:03:53.931Z,6.78
2023-02-24T03:06:24.723Z,6.78
2023-02-24T03:09:11.416Z,6.75
2023-02-24T03:11:39.503Z,6.75
2023-02-24T03:14:06.457Z,7.38
2023-02-24T03:16:33.532Z,6.32
2023-02-24T03:19:04.979Z,6.82
2023-02-24T03:21:38.837Z,6.68
2023-02-24T03:24:06.699Z,6.57
2023-02-24T03:26:50.216Z,6.78
2023-02-24T03:29:24.208Z,7.55
2023-02-24T03:32:06.299Z,7.03
2023-02-24T03:34:39.202Z,6.55
2023-02-24T03:37:07.180Z,7.35
2023-02-24T03:39:36.753Z,6.55
2023-02-24T03:42:14.925Z,7.25
2023-02-24T03:44:41.828Z,6.97
2023-02-24T03:47:09.663Z,6.60
2023-02-24T03:49:39.762Z,7.00
2023-02-24T03:52:21.749Z,7.40
2023-02-24T03:55:12.299Z,7.78
2023-02-24T03:58:00.121Z,6.82
2023-02-24T04:00:59.532Z,6.85
2023-02-24T04:03:44.400Z,6.68
2023-02-24T04:06:30.984Z,6.60
2023-02-24T04:09:13.532Z,6.85
2023-02-24T04:12:18.876Z,7.03
2023-02-24T04:14:57.231Z,6.72
2023-02-24T04:17:30.936Z,7.90
2023-02-24T04:20:01.047Z,7.38
2023-02-24T04:22:33.200Z,7.63
2023-02-24T04:25:00.410Z,6.47
2023-02-24T04:27:28.260Z,6.82
2023-02-24T04:30:02.318Z,6.93
2023-02-24T04:32:29.989Z,6.38
2023-02-24T04:35:09.497Z,6.60
2023-02-24T04:37:44.631Z,6.82
2023-02-24T04:40:18.446Z,6.30
2023-02-24T04:42:49.196Z,6.95
2023-02-24T04:45:21.706Z,6.47
2023-02-24T04:47:53.115Z,6.55
2023-02-24T04:50:23.985Z,7.10
2023-02-24T04:52:50.963Z,6.55
2023-02-24T04:55:19.456Z,6.20
2023-02-24T04:57:47.000Z,6.90
2023-02-24T05:00:21.378Z,7.05
2023-02-24T05:02:49.395Z,6.60
2023-02-24T05:05:17.580Z,6.47
2023-02-24T05:07:47.688Z,6.18
2023-02-24T05:10:15.562Z,6.45
2023-02-24T05:12:43.062Z,6.80
2023-02-24T05:15:10.458Z,6.80
2023-02-24T05:17:37.616Z,7.03
2023-02-24T05:20:23.918Z,6.43
2023-02-24T05:22:53.537Z,6.00
2023-02-24T05:25:20.921Z,6.45
2023-02-24T05:27:47.831Z,6.95
2023-02-24T05:30:14.872Z,6.47
2023-02-24T05:32:41.879Z,6.72
2023-02-24T05:35:10.798Z,6.88
2023-02-24T05:37:38.986Z,6.32
2023-02-24T05:40:06.594Z,5.82
2023-02-24T05:42:35.204Z,6.32
2023-02-24T05:45:02.411Z,6.28
2023-02-24T05:47:29.688Z,6.32
2023-02-24T05:49:59.120Z,6.07
2023-02-24T05:52:25.993Z,6.28
2023-02-24T05:54:53.581Z,6.25
2023-02-24T05:57:21.368Z,6.50
2023-02-24T05:59:49.306Z,5.80
2023-02-24T06:02:17.629Z,5.93
2023-02-24T06:04:55.659Z,5.80
2023-02-24T06:07:29.599Z,6.30
2023-02-24T06:09:57.901Z,5.50
2023-02-24T06:12:27.768Z,5.43
2023-02-24T06:14:54.748Z,5.53
2023-02-24T06:17:21.965Z,5.93
2023-02-24T06:19:50.738Z,5.53
2023-02-24T06:22:19.432Z,5.57
2023-02-24T06:24:46.403Z,6.00
2023-02-24T06:27:18.935Z,5.40
2023-02-24T06:29:46.519Z,5.82
2023-02-24T06:32:13.571Z,5.40
2023-02-24T06:34:41.146Z,6.00
2023-02-24T06:37:08.549Z,5.63
2023-02-24T06:39:36.689Z,5.22
2023-02-24T06:42:05.026Z,5.40
2023-02-24T06:44:32.712Z,5.00
2023-02-24T06:46:59.791Z,5.22
2023-02-24T06:49:27.014Z,5.90
2023-02-24T06:51:57.691Z,5.80
2023-02-24T06:54:36.182Z,5.18
2023-02-24T06:57:03.427Z,5.28
2023-02-24T06:59:30.470Z,5.55
2023-02-24T07:01:58.524Z,6.30
2023-02-24T07:04:28.253Z,5.40
2023-02-24T07:06:57.914Z,5.55
2023-02-24T07:09:26.169Z,5.63
2023-02-24T07:11:54.017Z,5.30
2023-02-24T07:14:22.212Z,4.95
2023-02-24T07:16:54.379Z,5.35
2023-02-24T07:19:23.593Z,5.28
2023-02-24T07:21:52.585Z,5.78
2023-02-24T07:24:33.123Z,4.97
2023-02-24T07:27:23.257Z,5.15
2023-02-24T07:29:52.912Z,5.00
2023-02-24T07:32:22.466Z,5.15
2023-02-24T07:34:49.614Z,5.80
2023-02-24T07:37:17.037Z,4.95
2023-02-24T07:39:44.113Z,5.45
2023-02-24T07:42:13.403Z,5.38
2023-02-24T07:44:46.663Z,5.60
2023-02-24T07:47:15.951Z,5.00
2023-02-24T07:49:43.229Z,5.00
2023-02-24T07:52:11.647Z,5.45
2023-02-24T07:54:39.591Z,5.30
2023-02-24T07:57:06.662Z,5.28
2023-02-24T07:59:35.330Z,5.32
2023-02-24T08:02:05.088Z,5.38
2023-02-24T08:04:33.138Z,5.13
2023-02-24T08:07:03.320Z,5.40
2023-02-24T08:09:46.066Z,5.35
2023-02-24T08:12:18.112Z,5.57
2023-02-24T08:14:50.838Z,5.55
2023-02-24T08:17:20.089Z,5.20
2023-02-24T08:19:50.378Z,5.37
2023-02-24T08:22:20.540Z,5.50
2023-02-24T08:24:52.854Z,5.10
2023-02-24T08:27:20.749Z,5.35
2023-02-24T08:29:58.463Z,5.15
2023-02-24T08:32:43.956Z,5.45
2023-02-24T08:35:18.083Z,5.35
2023-02-24T08:37:48.868Z,5.63
2023-02-24T08:40:49.800Z,4.95
2023-02-24T08:43:24.175Z,5.30
2023-02-24T08:46:18.839Z,5.53
2023-02-24T08:48:48.138Z,5.38
2023-02-24T08:51:23.219Z,5.07
2023-02-24T08:53:54.604Z,4.65
2023-02-24T08:56:26.775Z,5.50
2023-02-24T08:58:58.788Z,4.97
2023-02-24T09:01:35.066Z,5.43
2023-02-24T09:04:09.151Z,5.10
2023-02-24T09:07:10.732Z,5.57
2023-02-24T09:09:42.213Z,5.03
2023-02-24T09:12:10.522Z,5.90
2023-02-24T09:14:37.543Z,4.82
2023-02-24T09:17:07.173Z,5.38
2023-02-24T09:19:43.959Z,5.40
2023-02-24T09:22:31.128Z,5.32
2023-02-24T09:25:19.064Z,5.25
2023-02-24T09:27:55.296Z,5.13
2023-02-24T09:30:36.230Z,4.80
2023-02-24T09:33:07.336Z,6.18
2023-02-24T09:35:36.933Z,5.33
2023-02-24T09:38:07.846Z,5.28
2023-02-24T09:40:48.903Z,5.25
2023-02-24T09:43:21.882Z,5.53
2023-02-24T09:45:59.315Z,5.45
2023-02-24T09:48:54.939Z,5.28
2023-02-24T09:51:22.632Z,5.57
2023-02-24T09:53:54.067Z,5.15
2023-02-24T09:56:37.328Z,5.50
2023-02-24T09:59:29.033Z,5.22
2023-02-24T10:02:27.496Z,5.30
2023-02-24T10:05:07.846Z,4.95
2023-02-24T10:07:39.757Z,5.30
2023-02-24T10:13:15.338Z,5.68
2023-02-24T10:15:59.047Z,5.35
2023-02-24T10:18:46.989Z,5.13
2023-02-24T10:21:48.428Z,5.60
2023-02-24T10:24:23.041Z,5.10
2023-02-24T10:27:08.468Z,5.18
2023-02-24T10:29:45.129Z,5.35
2023-02-24T10:32:52.360Z,4.88
2023-02-24T10:35:21.083Z,5.38
2023-02-24T10:37:49.284Z,5.80
2023-02-24T10:40:26.607Z,5.30
2023-02-24T10:43:04.345Z,5.28
2023-02-24T10:45:34.724Z,5.18
2023-02-24T10:48:07.004Z,5.50
2023-02-24T10:50:55.069Z,5.72
2023-02-24T10:53:30.867Z,5.55
2023-02-24T10:56:17.232Z,5.13
2023-02-24T10:58:53.420Z,5.50
2023-02-24T11:01:40.890Z,6.22
2023-02-24T11:04:33.135Z,5.68
2023-02-24T11:09:44.230Z,6.22
2023-02-24T11:12:29.621Z,5.68
2023-02-24T11:15:16.869Z,6.20
2023-02-24T11:17:58.437Z,6.65
2023-02-24T11:20:49.814Z,6.10
2023-02-24T11:23:27.368Z,6.35
2023-02-24T11:26:21.725Z,6.07
2023-02-24T11:29:17.590Z,6.30
2023-02-24T11:31:56.575Z,6.13
2023-02-24T11:34:29.210Z,6.85
2023-02-24T11:37:11.752Z,7.10
2023-02-24T11:40:03.166Z,6.82
2023-02-24T11:42:32.130Z,6.65
2023-02-24T11:45:11.728Z,6.43
2023-02-24T11:47:47.597Z,6.50
2023-02-24T11:50:26.508Z,6.55
2023-02-24T11:52:53.772Z,6.78
2023-02-24T11:55:54.000Z,6.82
2023-02-24T11:58:25.438Z,6.45
2023-02-24T12:01:00.698Z,6.28
2023-02-24T12:03:56.486Z,6.85
2023-02-24T12:06:28.303Z,6.43
2023-02-24T12:08:59.161Z,7.00
2023-02-24T12:11:33.730Z,7.45
2023-02-24T12:14:21.544Z,6.32
2023-02-24T12:16:53.358Z,7.22
2023-02-24T12:21:52.751Z,7.00
2023-02-24T12:24:21.410Z,7.30
2023-02-24T12:27:16.531Z,6.45
2023-02-24T12:30:23.123Z,8.02
2023-02-24T12:33:15.081Z,7.45
2023-02-24T12:35:57.219Z,7.88
2023-02-24T12:38:28.598Z,7.18
2023-02-24T12:41:37.465Z,7.78
2023-02-24T12:44:23.076Z,6.97
2023-02-24T12:47:06.796Z,7.68
2023-02-24T12:50:01.460Z,6.63
2023-02-24T12:52:54.067Z,6.97
2023-02-24T12:55:28.692Z,7.13
2023-02-24T12:57:55.624Z,5.53
2023-02-24T13:00:38.073Z,5.47
2023-02-24T13:03:39.568Z,5.10
2023-02-24T13:06:10.151Z,5.30
2023-02-24T13:09:18.385Z,5.57
2023-02-24T13:11:52.943Z,4.88
2023-02-24T13:14:43.306Z,5.05
2023-02-24T13:17:13.266Z,5.30
2023-02-24T13:19:40.565Z,5.30
2023-02-24T13:22:13.637Z,5.30
2023-02-24T13:24:56.542Z,5.40
2023-02-24T13:27:25.249Z,5.57
2023-02-24T13:29:54.800Z,6.13
2023-02-24T13:32:36.995Z,5.03
2023-02-24T13:35:05.129Z,5.93
2023-02-24T13:37:53.649Z,6.35
2023-02-24T13:40:23.319Z,6.20
2023-02-24T13:42:56.550Z,5.80
2023-02-24T13:45:24.913Z,6.25
2023-02-24T13:48:13.345Z,6.25
2023-02-24T13:50:58.371Z,6.22
2023-02-24T13:53:46.892Z,4.60
2023-02-24T13:56:19.765Z,3.95
2023-02-24T13:58:52.893Z,3.38
2023-02-24T14:01:20.677Z,3.20
2023-02-24T14:04:05.873Z,3.17
2023-02-24T14:06:32.922Z,3.00
2023-02-24T14:09:01.166Z,3.13
2023-02-24T14:11:30.324Z,3.40
2023-02-24T14:13:57.493Z,3.70
2023-02-24T14:16:36.499Z,2.97
2023-02-24T14:19:03.563Z,3.60
2023-02-24T14:21:32.132Z,3.05
2023-02-24T14:24:05.422Z,3.45
2023-02-24T14:26:39.014Z,3.65
2023-02-24T14:29:07.065Z,3.53
2023-02-24T14:31:34.207Z,4.50
2023-02-24T14:34:02.948Z,4.00
2023-02-24T14:36:32.218Z,3.65
2023-02-24T14:39:09.253Z,3.95
2023-02-24T14:41:36.424Z,3.60
2023-02-24T14:44:17.186Z,3.75
2023-02-24T14:46:51.966Z,3.58
2023-02-24T14:49:29.490Z,3.42
2023-02-24T14:52:12.078Z,3.58
2023-02-24T14:54:39.113Z,3.30
2023-02-24T14:57:06.316Z,3.67
2023-02-24T14:59:38.367Z,3.60
2023-02-24T15:02:05.900Z,4.30
2023-02-24T15:04:33.971Z,3.72
2023-02-24T15:07:12.483Z,3.70
2023-02-24T15:09:43.468Z,3.83
2023-02-24T15:12:20.980Z,4.00
2023-02-24T15:15:05.558Z,3.83
2023-02-24T15:17:32.775Z,3.78
2023-02-24T15:19:59.778Z,3.75
2023-02-24T15:22:34.840Z,3.63
2023-02-24T15:25:21.229Z,3.22
2023-02-24T15:28:02.860Z,3.28
2023-02-24T15:30:52.409Z,3.75
2023-02-24T15:33:21.325Z,3.72
2023-02-24T15:35:50.885Z,3.88
2023-02-24T15:38:38.567Z,3.67
2023-02-24T15:41:06.655Z,3.70
2023-02-24T15:43:50.588Z,3.63
2023-02-24T15:46:30.671Z,3.85
2023-02-24T15:49:01.823Z,3.75
2023-02-24T15:51:40.199Z,3.90
2023-02-24T15:54:10.851Z,3.80
2023-02-24T15:56:37.912Z,3.42
2023-02-24T15:59:06.088Z,3.40
2023-02-24T16:01:35.918Z,3.53
2023-02-24T16:04:04.928Z,3.50
2023-02-24T16:06:32.003Z,3.60
2023-02-24T16:08:58.913Z,3.50
2023-02-24T16:11:27.850Z,4.05
2023-02-24T16:13:58.910Z,4.00
2023-02-24T16:16:26.202Z,4.05
2023-02-24T16:18:53.190Z,3.80
2023-02-24T16:21:23.740Z,3.60
2023-02-24T16:23:51.314Z,3.88
2023-02-24T16:26:19.738Z,4.00
2023-02-24T16:28:56.125Z,3.70
2023-02-24T16:31:24.304Z,2.95
2023-02-24T16:33:55.325Z,3.33
2023-02-24T16:36:24.621Z,3.17
2023-02-24T16:38:51.861Z,3.35
2023-02-24T16:41:18.877Z,3.50
2023-02-24T16:43:45.938Z,3.00
2023-02-24T16:46:20.956Z,3.08
2023-02-24T16:48:49.218Z,3.15
2023-02-24T16:51:16.304Z,3.10
2023-02-24T16:53:43.644Z,3.08
2023-02-24T16:56:10.735Z,2.88
2023-02-24T16:58:38.160Z,2.75
2023-02-24T17:01:05.556Z,3.00
2023-02-24T17:03:44.062Z,2.70
2023-02-24T17:06:11.116Z,2.63
2023-02-24T17:08:38.223Z,2.85
2023-02-24T17:11:05.382Z,2.65
2023-02-24T17:13:32.590Z,3.05
2023-02-24T17:15:59.762Z,2.80
2023-02-24T17:18:26.924Z,2.85
2023-02-24T17:20:59.742Z,3.10
2023-02-24T17:23:29.625Z,3.15
2023-02-24T17:25:57.957Z,2.78
2023-02-24T17:28:25.325Z,3.05
2023-02-24T17:30:52.403Z,3.20
2023-02-24T17:33:22.167Z,3.55
2023-02-24T17:35:49.513Z,2.88
2023-02-24T17:38:20.277Z,3.08
2023-02-24T17:40:47.887Z,3.13
2023-02-24T17:43:14.985Z,3.58
2023-02-24T17:45:44.852Z,3.45
2023-02-24T17:48:12.840Z,3.38
2023-02-24T17:50:44.158Z,3.50
2023-02-24T17:53:11.099Z,3.20
2023-02-24T17:55:39.506Z,3.35
2023-02-24T17:58:12.258Z,3.05
2023-02-24T18:00:44.830Z,3.20
2023-02-24T18:03:12.596Z,2.78
2023-02-24T18:05:39.876Z,3.22
2023-02-24T18:08:06.796Z,3.83
2023-02-24T18:10:33.720Z,3.03
2023-02-24T18:13:00.988Z,3.00
2023-02-24T18:15:27.902Z,2.92
2023-02-24T18:17:54.862Z,3.13
2023-02-24T18:20:22.262Z,3.25
2023-02-24T18:22:49.405Z,3.28
2023-02-24T18:25:19.094Z,3.35
2023-02-24T18:27:46.729Z,3.20
2023-02-24T18:30:17.784Z,3.40
2023-02-24T18:32:45.067Z,3.30
2023-02-24T18:35:12.717Z,3.25
2023-02-24T18:37:39.675Z,3.03
2023-02-24T18:40:07.260Z,2.92
2023-02-24T18:42:34.223Z,3.00
2023-02-24T18:45:01.145Z,3.05
2023-02-24T18:47:28.374Z,2.97
2023-02-24T18:49:55.319Z,3.22
2023-02-24T18:52:22.445Z,3.00
2023-02-24T18:54:49.737Z,3.33
2023-02-24T18:57:16.719Z,3.10
2023-02-24T18:59:43.747Z,3.15
2023-02-24T19:02:10.898Z,3.22
2023-02-24T19:04:37.815Z,2.90
2023-02-24T19:07:05.369Z,2.85
2023-02-24T19:09:32.326Z,3.00
2023-02-24T19:11:59.372Z,2.80
2023-02-24T19:14:26.396Z,2.88
2023-02-24T19:16:53.457Z,2.60
2023-02-24T19:19:22.768Z,2.60
2023-02-24T19:21:49.815Z,2.75
2023-02-24T19:24:17.139Z,2.80
2023-02-24T19:26:45.908Z,2.70
2023-02-24T19:29:12.934Z,2.47
2023-02-24T19:31:40.187Z,2.40
2023-02-24T19:34:08.573Z,2.45
2023-02-24T19:36:35.927Z,2.40
2023-02-24T19:39:02.970Z,2.47
2023-02-24T19:41:30.037Z,2.40
2023-02-24T19:43:56.961Z,2.58
2023-02-24T19:46:24.283Z,2.40
2023-02-24T19:48:51.453Z,2.92
2023-02-24T19:51:22.512Z,2.53
2023-02-24T19:53:52.553Z,2.97
2023-02-24T19:56:25.908Z,2.40
2023-02-24T19:58:54.498Z,2.63
2023-02-24T20:01:21.558Z,2.40
2023-02-24T20:03:49.026Z,2.60
2023-02-24T20:06:20.895Z,2.75
2023-02-24T20:08:48.212Z,2.20
2023-02-24T20:11:15.249Z,2.60
2023-02-24T20:13:42.176Z,2.50
2023-02-24T20:16:13.041Z,2.83
2023-02-24T20:18:40.468Z,3.28
2023-02-24T20:21:07.797Z,2.60
2023-02-24T20:23:34.987Z,2.75
2023-02-24T20:26:02.608Z,2.60
2023-02-24T20:28:29.659Z,2.53
2023-02-24T20:30:57.909Z,2.65
2023-02-24T20:33:27.824Z,3.00
2023-02-24T20:35:55.706Z,2.60
2023-02-24T20:38:25.931Z,2.60
2023-02-24T20:40:59.384Z,2.55
2023-02-24T20:43:27.392Z,2.78
2023-02-24T20:45:54.467Z,2.80
2023-02-24T20:48:21.673Z,2.70
2023-02-24T20:50:48.787Z,2.80
2023-02-24T20:53:17.702Z,2.92
2023-02-24T20:55:44.920Z,2.78
2023-02-24T20:58:11.869Z,2.28
2023-02-24T21:00:40.605Z,2.60
2023-02-24T21:03:11.916Z,2.75
2023-02-24T21:05:39.612Z,2.80
2023-02-24T21:08:06.633Z,2.75
2023-02-24T21:10:33.629Z,2.55
2023-02-24T21:13:00.716Z,2.90
2023-02-24T21:15:27.714Z,2.70
2023-02-24T21:17:54.671Z,2.63
2023-02-24T21:20:22.644Z,2.78
2023-02-24T21:22:49.646Z,2.58
2023-02-24T21:25:16.724Z,3.25
2023-02-24T21:27:43.739Z,3.35
2023-02-24T21:30:12.471Z,2.85
2023-02-24T21:32:39.505Z,3.05
2023-02-24T21:35:06.658Z,2.70
2023-02-24T21:37:35.201Z,3.30
2023-02-24T21:40:02.231Z,2.92
2023-02-24T21:42:29.138Z,3.00
2023-02-24T21:45:02.356Z,3.03
2023-02-24T21:47:32.439Z,2.80
2023-02-24T21:50:00.263Z,2.80
2023-02-24T21:52:27.385Z,3.47
2023-02-24T21:54:54.405Z,3.00
2023-02-24T21:57:22.088Z,3.00
2023-02-24T21:59:49.209Z,2.80
2023-02-24T22:02:16.972Z,2.83
2023-02-24T22:04:44.648Z,3.40
2023-02-24T22:07:11.770Z,2.85
2023-02-24T22:09:38.794Z,3.42
2023-02-24T22:12:05.953Z,3.20
2023-02-24T22:14:32.896Z,3.90
2023-02-24T22:16:59.911Z,3.83
2023-02-24T22:19:26.863Z,3.72
2023-02-24T22:21:53.747Z,3.10
2023-02-24T22:24:20.781Z,3.20
2023-02-24T22:26:47.738Z,3.70
2023-02-24T22:29:14.759Z,2.95
2023-02-24T22:31:43.819Z,3.00
2023-02-24T22:34:11.107Z,3.25
2023-02-24T22:36:38.162Z,3.03
2023-02-24T22:39:05.345Z,2.85
2023-02-24T22:41:33.594Z,2.75
2023-02-24T22:44:01.267Z,2.90
2023-02-24T22:46:30.391Z,3.00
2023-02-24T22:48:57.598Z,2.88
2023-02-24T22:51:25.298Z,3.25
2023-02-24T22:53:52.309Z,3.05
2023-02-24T22:56:21.642Z,3.58
2023-02-24T22:58:49.024Z,3.58
2023-02-24T23:01:22.281Z,4.10
2023-02-24T23:03:49.588Z,4.13
2023-02-24T23:06:18.398Z,4.00
2023-02-24T23:08:46.784Z,4.07
2023-02-24T23:11:18.496Z,4.15
2023-02-24T23:13:46.703Z,4.18
2023-02-24T23:16:15.977Z,3.75
2023-02-24T23:18:48.607Z,4.13
2023-02-24T23:21:16.342Z,4.07
2023-02-24T23:23:44.499Z,3.90
2023-02-24T23:26:11.580Z,4.30
2023-02-24T23:28:39.203Z,4.05
2023-02-24T23:31:06.230Z,3.97
2023-02-24T23:33:34.441Z,3.92
2023-02-24T23:36:05.833Z,4.47
2023-02-24T23:38:33.518Z,4.18
2023-02-24T23:41:00.516Z,4.95
2023-02-24T23:43:27.498Z,3.70
2023-02-24T23:45:54.519Z,4.00
2023-02-24T23:48:21.499Z,4.10
2023-02-24T23:50:51.060Z,3.63
2023-02-24T23:53:18.067Z,3.88
2023-02-24T23:55:45.033Z,3.70
2023-02-24T23:58:12.084Z,3.70
